createdAt,value
2023-02-12T00:01:23.160Z,27.53
2023-02-12T00:03:50.814Z,26.25
2023-02-12T00:06:17.717Z,26.17
2023-02-12T00:08:44.743Z,22.73
2023-02-12T00:11:17.345Z,21.90
2023-02-12T00:13:44.721Z,19.95
2023-02-12T00:16:14.878Z,21.65
2023-02-12T00:18:42.572Z,21.83
2023-02-12T00:21:09.704Z,23.67
2023-02-12T00:23:38.379Z,21.90
2023-02-12T00:26:07.485Z,25.37
2023-02-12T00:28:34.582Z,20.85
2023-02-12T00:31:11.993Z,22.52
2023-02-12T00:33:39.346Z,24.80
2023-02-12T00:36:10.034Z,22.37
2023-02-12T00:38:36.910Z,21.65
2023-02-12T00:41:04.265Z,25.02
2023-02-12T00:43:32.338Z,25.67
2023-02-12T00:45:59.520Z,28.45
2023-02-12T00:48:26.792Z,35.80
2023-02-12T00:50:53.675Z,33.67
2023-02-12T00:53:20.836Z,37.08
2023-02-12T00:55:47.717Z,40.33
2023-02-12T00:58:16.153Z,45.42
2023-02-12T01:00:44.890Z,40.85
2023-02-12T01:03:11.924Z,44.30
2023-02-12T01:05:38.826Z,39.53
2023-02-12T01:08:05.837Z,36.42
2023-02-12T01:10:33.146Z,36.45
2023-02-12T01:13:00.124Z,37.92
2023-02-12T01:15:26.970Z,38.75
2023-02-12T01:17:54.595Z,41.67
2023-02-12T01:20:24.539Z,36.03
2023-02-12T01:22:52.047Z,36.53
2023-02-12T01:25:20.958Z,35.75
2023-02-12T01:27:48.063Z,33.57
2023-02-12T01:30:15.857Z,34.92
2023-02-12T01:32:44.219Z,38.92
2023-02-12T01:35:11.288Z,41.67
2023-02-12T01:37:42.394Z,36.92
2023-02-12T01:40:20.032Z,36.42
2023-02-12T01:42:46.899Z,38.88
2023-02-12T01:45:13.934Z,37.90
2023-02-12T01:47:42.475Z,34.08
2023-02-12T01:50:13.461Z,41.03
2023-02-12T01:52:44.190Z,30.73
2023-02-12T01:55:12.034Z,35.50
2023-02-12T01:57:43.020Z,31.37
2023-02-12T02:00:17.777Z,26.75
2023-02-12T02:02:52.974Z,35.13
2023-02-12T02:05:39.147Z,32.83
2023-02-12T02:08:07.086Z,27.27
2023-02-12T02:10:33.953Z,25.70
2023-02-12T02:13:20.111Z,26.10
2023-02-12T02:15:50.874Z,16.02
2023-02-12T02:18:35.380Z,23.67
2023-02-12T02:21:18.259Z,19.30
2023-02-12T02:24:16.259Z,12.73
2023-02-12T02:26:48.947Z,15.07
2023-02-12T02:29:40.752Z,12.73
2023-02-12T02:32:13.457Z,15.23
2023-02-12T02:35:06.339Z,16.23
2023-02-12T02:37:58.208Z,14.48
2023-02-12T02:40:31.941Z,15.40
2023-02-12T02:43:07.903Z,18.02
2023-02-12T02:45:43.406Z,14.93
2023-02-12T02:48:17.795Z,16.08
2023-02-12T02:50:52.889Z,16.85
2023-02-12T02:53:30.348Z,16.08
2023-02-12T02:56:00.332Z,19.20
2023-02-12T02:58:35.963Z,17.73
2023-02-12T03:01:18.991Z,15.80
2023-02-12T03:03:55.118Z,16.77
2023-02-12T03:06:32.912Z,15.85
2023-02-12T03:09:11.659Z,19.73
2023-02-12T03:11:38.630Z,16.05
2023-02-12T03:14:10.194Z,18.70
2023-02-12T03:16:59.870Z,15.80
2023-02-12T03:19:31.086Z,16.10
2023-02-12T03:22:04.736Z,15.88
2023-02-12T03:24:40.814Z,17.17
2023-02-12T03:27:13.566Z,17.02
2023-02-12T03:29:40.624Z,18.70
2023-02-12T03:32:21.781Z,18.70
2023-02-12T03:35:04.484Z,20.12
2023-02-12T03:37:44.074Z,19.50
2023-02-12T03:40:23.852Z,21.58
2023-02-12T03:45:35.496Z,17.75
2023-02-12T03:48:13.759Z,20.83
2023-02-12T03:50:55.659Z,17.98
2023-02-12T03:53:22.820Z,19.58
2023-02-12T03:55:53.552Z,19.10
2023-02-12T03:58:26.052Z,18.00
2023-02-12T04:00:53.406Z,21.37
2023-02-12T04:03:20.841Z,17.50
2023-02-12T04:05:47.833Z,20.62
2023-02-12T04:08:14.852Z,17.55
2023-02-12T04:11:01.838Z,18.30
2023-02-12T04:14:15.384Z,15.77
2023-02-12T04:16:51.943Z,17.87
2023-02-12T04:19:29.777Z,18.20
2023-02-12T04:22:26.386Z,20.00
2023-02-12T04:25:04.934Z,17.08
2023-02-12T04:27:57.004Z,17.80
2023-02-12T04:30:39.121Z,17.27
2023-02-12T04:33:11.006Z,16.27
2023-02-12T04:36:03.262Z,18.08
2023-02-12T04:38:40.933Z,18.17
2023-02-12T04:41:09.790Z,17.92
2023-02-12T04:43:37.997Z,20.08
2023-02-12T04:46:07.346Z,18.92
2023-02-12T04:48:36.336Z,18.58
2023-02-12T04:51:03.390Z,17.73
2023-02-12T04:53:30.300Z,20.40
2023-02-12T04:55:57.515Z,19.55
2023-02-12T04:58:24.543Z,19.08
2023-02-12T05:00:53.855Z,18.65
2023-02-12T05:03:20.801Z,22.02
2023-02-12T05:05:47.675Z,20.73
2023-02-12T05:08:14.508Z,20.48
2023-02-12T05:10:42.300Z,20.95
2023-02-12T05:13:09.239Z,22.65
2023-02-12T05:15:38.614Z,23.15
2023-02-12T05:18:05.780Z,20.17
2023-02-12T05:20:32.700Z,19.40
2023-02-12T05:22:59.670Z,18.33
2023-02-12T05:25:26.872Z,18.15
2023-02-12T05:27:53.769Z,20.10
2023-02-12T05:30:20.774Z,21.15
2023-02-12T05:32:48.050Z,18.58
2023-02-12T05:35:16.004Z,21.85
2023-02-12T05:37:42.914Z,22.80
2023-02-12T05:40:10.350Z,22.08
2023-02-12T05:42:37.356Z,23.80
2023-02-12T05:45:04.590Z,20.00
2023-02-12T05:47:31.404Z,20.27
2023-02-12T05:49:58.370Z,17.30
2023-02-12T05:52:26.427Z,21.20
2023-02-12T05:54:53.330Z,19.92
2023-02-12T05:57:20.194Z,20.37
2023-02-12T05:59:46.970Z,19.62
2023-02-12T06:02:13.895Z,21.60
2023-02-12T06:04:40.778Z,20.10
2023-02-12T06:07:07.669Z,20.77
2023-02-12T06:09:37.600Z,23.65
2023-02-12T06:12:04.709Z,20.77
2023-02-12T06:14:32.750Z,20.05
2023-02-12T06:16:59.788Z,18.80
2023-02-12T06:19:26.760Z,24.80
2023-02-12T06:21:53.772Z,21.33
2023-02-12T06:24:20.670Z,23.10
2023-02-12T06:26:51.019Z,18.70
2023-02-12T06:29:22.134Z,21.10
2023-02-12T06:31:53.420Z,21.30
2023-02-12T06:34:22.565Z,22.08
2023-02-12T06:36:50.658Z,21.37
2023-02-12T06:39:19.673Z,20.40
2023-02-12T06:41:47.078Z,22.07
2023-02-12T06:44:15.009Z,22.48
2023-02-12T06:46:43.266Z,20.98
2023-02-12T06:49:12.735Z,22.75
2023-02-12T06:51:41.724Z,17.83
2023-02-12T06:54:19.842Z,20.00
2023-02-12T06:56:58.221Z,23.70
2023-02-12T06:59:33.774Z,21.48
2023-02-12T07:02:01.113Z,21.17
2023-02-12T07:04:36.240Z,22.20
2023-02-12T07:07:08.190Z,19.98
2023-02-12T07:09:35.384Z,20.92
2023-02-12T07:12:02.387Z,25.83
2023-02-12T07:14:29.652Z,22.95
2023-02-12T07:16:57.544Z,20.67
2023-02-12T07:19:27.752Z,18.90
2023-02-12T07:21:54.855Z,20.62
2023-02-12T07:24:22.605Z,20.08
2023-02-12T07:26:51.101Z,20.43
2023-02-12T07:29:18.629Z,19.75
2023-02-12T07:31:45.783Z,22.85
2023-02-12T07:34:13.071Z,22.60
2023-02-12T07:36:40.815Z,23.83
2023-02-12T07:39:07.989Z,23.20
2023-02-12T07:41:36.674Z,19.73
2023-02-12T07:44:07.861Z,20.73
2023-02-12T07:46:38.335Z,25.10
2023-02-12T07:49:06.844Z,19.87
2023-02-12T07:51:36.601Z,19.50
2023-02-12T07:54:04.655Z,22.27
2023-02-12T07:56:35.775Z,18.33
2023-02-12T07:59:15.537Z,23.25
2023-02-12T08:01:54.025Z,20.90
2023-02-12T08:04:24.400Z,19.48
2023-02-12T08:06:54.520Z,19.62
2023-02-12T08:09:25.668Z,19.67
2023-02-12T08:11:53.000Z,15.68
2023-02-12T08:14:23.154Z,16.60
2023-02-12T08:16:51.536Z,17.70
2023-02-12T08:19:22.717Z,20.88
2023-02-12T08:21:53.177Z,17.35
2023-02-12T08:24:20.234Z,19.65
2023-02-12T08:26:47.161Z,18.45
2023-02-12T08:29:17.964Z,16.92
2023-02-12T08:31:47.665Z,18.98
2023-02-12T08:36:46.692Z,20.45
2023-02-12T08:39:16.118Z,21.15
2023-02-12T08:41:48.562Z,17.98
2023-02-12T08:44:16.283Z,18.70
2023-02-12T08:46:48.868Z,16.33
2023-02-12T08:49:18.294Z,13.05
2023-02-12T08:51:49.059Z,19.45
2023-02-12T08:54:21.594Z,13.18
2023-02-12T08:56:48.516Z,14.85
2023-02-12T08:59:16.706Z,19.80
2023-02-12T09:01:44.437Z,17.12
2023-02-12T09:04:18.134Z,13.23
2023-02-12T09:06:46.467Z,16.23
2023-02-12T09:09:14.309Z,14.02
2023-02-12T09:11:42.029Z,16.27
2023-02-12T09:14:12.451Z,15.20
2023-02-12T09:16:42.539Z,14.82
2023-02-12T09:19:13.212Z,15.48
2023-02-12T09:21:41.394Z,13.77
2023-02-12T09:24:08.976Z,17.25
2023-02-12T09:26:36.121Z,14.30
2023-02-12T09:29:05.575Z,12.60
2023-02-12T09:31:33.774Z,15.82
2023-02-12T09:34:03.805Z,15.75
2023-02-12T09:36:31.692Z,13.65
2023-02-12T09:38:59.921Z,13.70
2023-02-12T09:41:39.347Z,15.32
2023-02-12T09:44:18.139Z,17.02
2023-02-12T09:46:49.612Z,15.80
2023-02-12T09:49:26.890Z,19.27
2023-02-12T09:51:55.399Z,12.80
2023-02-12T09:54:34.547Z,19.52
2023-02-12T09:57:04.969Z,15.30
2023-02-12T09:59:47.713Z,18.35
2023-02-12T10:02:16.237Z,12.60
2023-02-12T10:04:59.804Z,14.18
2023-02-12T10:07:40.594Z,13.38
2023-02-12T10:10:42.911Z,17.87
2023-02-12T10:13:35.464Z,18.83
2023-02-12T10:16:26.068Z,12.95
2023-02-12T10:19:22.463Z,15.32
2023-02-12T10:22:33.932Z,14.45
2023-02-12T10:25:18.568Z,25.60
2023-02-12T10:27:55.250Z,13.27
2023-02-12T10:30:31.441Z,14.07
2023-02-12T10:33:08.149Z,17.95
2023-02-12T10:35:35.793Z,14.07
2023-02-12T10:38:08.066Z,20.75
2023-02-12T10:40:38.550Z,12.20
2023-02-12T10:43:05.520Z,14.13
2023-02-12T10:45:33.727Z,12.77
2023-02-12T10:48:10.943Z,11.88
2023-02-12T10:50:59.676Z,16.60
2023-02-12T10:53:33.982Z,14.18
2023-02-12T10:56:19.014Z,12.02
2023-02-12T10:58:55.420Z,11.85
2023-02-12T11:01:33.555Z,12.75
2023-02-12T11:04:19.949Z,15.82
2023-02-12T11:06:59.780Z,10.80
2023-02-12T11:09:53.967Z,12.07
2023-02-12T11:12:43.723Z,13.88
2023-02-12T11:15:15.183Z,11.02
2023-02-12T11:17:45.600Z,11.10
2023-02-12T11:20:18.702Z,11.65
2023-02-12T11:22:58.306Z,11.30
2023-02-12T11:25:29.210Z,15.70
2023-02-12T11:28:05.447Z,17.73
2023-02-12T11:30:33.415Z,19.00
2023-02-12T11:33:22.171Z,13.45
2023-02-12T11:35:52.056Z,10.43
2023-02-12T11:40:56.828Z,13.20
2023-02-12T11:43:25.279Z,12.77
2023-02-12T11:45:56.553Z,10.38
2023-02-12T11:48:27.869Z,13.50
2023-02-12T11:50:58.224Z,11.35
2023-02-12T11:53:33.643Z,13.70
2023-02-12T11:56:10.405Z,12.93
2023-02-12T11:58:39.433Z,11.40
2023-02-12T12:01:19.670Z,13.18
2023-02-12T12:04:05.505Z,11.80
2023-02-12T12:07:17.774Z,12.07
2023-02-12T12:10:25.981Z,12.73
2023-02-12T12:13:17.790Z,7.50
2023-02-12T12:16:15.432Z,9.20
2023-02-12T12:19:07.685Z,9.90
2023-02-12T12:21:40.210Z,10.48
2023-02-12T12:24:35.041Z,10.40
2023-02-12T12:27:35.771Z,10.93
2023-02-12T12:30:11.935Z,9.45
2023-02-12T12:32:48.495Z,10.55
2023-02-12T12:36:18.809Z,8.00
2023-02-12T12:38:58.040Z,11.48
2023-02-12T12:41:36.582Z,11.07
2023-02-12T12:44:52.230Z,6.32
2023-02-12T12:47:54.977Z,11.77
2023-02-12T12:50:54.695Z,9.40
2023-02-12T12:53:53.594Z,8.07
2023-02-12T12:56:34.718Z,6.47
2023-02-12T12:59:38.617Z,6.15
2023-02-12T13:02:41.634Z,6.35
2023-02-12T13:05:23.707Z,7.40
2023-02-12T13:08:14.509Z,6.93
2023-02-12T13:10:51.317Z,7.85
2023-02-12T13:13:21.390Z,9.57
2023-02-12T13:18:29.531Z,13.43
2023-02-12T13:20:56.348Z,10.95
2023-02-12T13:23:45.647Z,16.87
2023-02-12T13:26:40.831Z,8.80
2023-02-12T13:29:17.174Z,10.20
2023-02-12T13:32:02.012Z,11.23
2023-02-12T13:34:34.738Z,11.48
2023-02-12T13:37:04.686Z,10.63
2023-02-12T13:42:43.497Z,11.07
2023-02-12T13:45:25.615Z,9.55
2023-02-12T13:48:23.394Z,11.32
2023-02-12T13:51:21.948Z,11.10
2023-02-12T13:54:13.913Z,12.27
2023-02-12T13:57:08.676Z,12.52
2023-02-12T13:59:35.656Z,15.38
2023-02-12T14:02:05.965Z,20.00
2023-02-12T14:04:34.205Z,13.95
2023-02-12T14:07:10.212Z,13.80
2023-02-12T14:09:50.463Z,10.18
2023-02-12T14:12:26.620Z,12.50
2023-02-12T14:15:07.900Z,10.98
2023-02-12T14:17:34.737Z,9.35
2023-02-12T14:20:23.206Z,7.03
2023-02-12T14:22:50.341Z,8.85
2023-02-12T14:25:17.149Z,8.77
2023-02-12T14:27:59.635Z,6.05
2023-02-12T14:30:26.980Z,6.65
2023-02-12T14:33:09.561Z,9.07
2023-02-12T14:35:37.881Z,10.02
2023-02-12T14:38:18.119Z,6.37
2023-02-12T14:40:47.502Z,8.80
2023-02-12T14:43:32.158Z,10.60
2023-02-12T14:46:19.230Z,12.10
2023-02-12T14:48:56.105Z,16.80
2023-02-12T14:51:36.596Z,10.18
2023-02-12T14:54:12.313Z,11.75
2023-02-12T14:56:47.816Z,10.55
2023-02-12T14:59:21.304Z,9.52
2023-02-12T15:01:50.496Z,17.20
2023-02-12T15:04:29.091Z,21.52
2023-02-12T15:06:59.147Z,17.15
2023-02-12T15:09:41.961Z,13.57
2023-02-12T15:12:20.226Z,17.98
2023-02-12T15:14:56.359Z,20.92
2023-02-12T15:17:30.103Z,20.15
2023-02-12T15:20:03.027Z,16.70
2023-02-12T15:22:38.309Z,17.75
2023-02-12T15:25:43.902Z,22.15
2023-02-12T15:28:36.520Z,20.15
2023-02-12T15:31:09.930Z,15.45
2023-02-12T15:33:41.811Z,13.05
2023-02-12T15:36:11.464Z,13.48
2023-02-12T15:38:44.070Z,15.57
2023-02-12T15:41:26.653Z,15.60
2023-02-12T15:43:53.581Z,15.65
2023-02-12T15:46:21.367Z,12.43
2023-02-12T15:48:48.466Z,14.35
2023-02-12T15:51:35.914Z,12.13
2023-02-12T15:54:08.789Z,14.60
2023-02-12T15:56:41.345Z,11.77
2023-02-12T15:59:20.147Z,18.77
2023-02-12T16:02:00.694Z,19.52
2023-02-12T16:04:31.507Z,32.08
2023-02-12T16:07:00.415Z,39.85
2023-02-12T16:09:28.963Z,46.60
2023-02-12T16:11:58.567Z,30.70
2023-02-12T16:14:48.882Z,25.35
2023-02-12T16:17:34.766Z,15.75
2023-02-12T16:20:22.977Z,21.23
2023-02-12T16:22:52.709Z,41.85
2023-02-12T16:25:26.734Z,31.08
2023-02-12T16:28:00.012Z,28.75
2023-02-12T16:30:33.616Z,24.10
2023-02-12T16:33:03.554Z,31.42
2023-02-12T16:38:03.064Z,27.33
2023-02-12T16:40:33.901Z,30.02
2023-02-12T16:43:04.715Z,26.17
2023-02-12T16:45:40.151Z,26.95
2023-02-12T16:48:09.128Z,23.85
2023-02-12T16:50:43.738Z,23.17
2023-02-12T16:53:47.546Z,30.73
2023-02-12T16:56:18.486Z,29.00
2023-02-12T16:58:47.135Z,30.85
2023-02-12T17:01:25.416Z,34.17
2023-02-12T17:03:53.656Z,36.95
2023-02-12T17:06:23.393Z,33.70
2023-02-12T17:08:50.888Z,62.30
2023-02-12T17:11:18.769Z,34.03
2023-02-12T17:13:49.998Z,24.63
2023-02-12T17:16:29.702Z,75.45
2023-02-12T17:18:58.017Z,48.80
2023-02-12T17:21:38.209Z,47.00
2023-02-12T17:24:15.490Z,41.53
2023-02-12T17:26:42.436Z,34.40
2023-02-12T17:29:09.342Z,62.53
2023-02-12T17:31:37.834Z,80.57
2023-02-12T17:34:05.883Z,55.70
2023-02-12T17:36:33.477Z,49.80
2023-02-12T17:39:01.498Z,49.70
2023-02-12T17:41:28.409Z,44.38
2023-02-12T17:43:56.408Z,47.90
2023-02-12T17:46:25.444Z,53.28
2023-02-12T17:48:52.412Z,60.73
2023-02-12T17:51:20.122Z,57.05
2023-02-12T17:53:47.408Z,67.57
2023-02-12T17:56:20.488Z,83.68
2023-02-12T17:58:48.362Z,71.40
2023-02-12T18:01:18.378Z,63.03
2023-02-12T18:03:45.839Z,65.03
2023-02-12T18:06:16.744Z,67.45
2023-02-12T18:08:43.734Z,63.10
2023-02-12T18:11:12.514Z,65.57
2023-02-12T18:13:39.720Z,64.75
2023-02-12T18:16:08.563Z,68.60
2023-02-12T18:18:36.692Z,72.57
2023-02-12T18:21:09.123Z,61.75
2023-02-12T18:23:36.674Z,56.92
2023-02-12T18:26:12.880Z,50.83
2023-02-12T18:28:39.994Z,42.28
2023-02-12T18:31:07.623Z,46.03
2023-02-12T18:33:35.681Z,37.08
2023-02-12T18:36:08.943Z,46.78
2023-02-12T18:38:37.735Z,49.58
2023-02-12T18:41:14.621Z,49.72
2023-02-12T18:43:43.399Z,57.95
2023-02-12T18:46:14.223Z,61.20
2023-02-12T18:48:41.597Z,69.35
2023-02-12T18:51:10.933Z,88.75
2023-02-12T18:53:38.127Z,132.05
2023-02-12T18:56:07.001Z,119.72
2023-02-12T18:58:34.343Z,92.45
2023-02-12T19:01:01.968Z,95.57
2023-02-12T19:03:28.976Z,114.72
2023-02-12T19:06:04.186Z,93.87
2023-02-12T19:08:31.460Z,98.78
2023-02-12T19:10:58.730Z,78.93
2023-02-12T19:13:25.907Z,69.82
2023-02-12T19:15:53.154Z,51.85
2023-02-12T19:18:20.149Z,42.30
2023-02-12T19:20:47.038Z,39.20
2023-02-12T19:23:14.036Z,39.33
2023-02-12T19:25:43.559Z,34.45
2023-02-12T19:28:11.450Z,40.15
2023-02-12T19:30:40.630Z,37.22
2023-02-12T19:33:07.980Z,28.42
2023-02-12T19:35:37.231Z,59.72
2023-02-12T19:38:04.241Z,51.90
2023-02-12T19:40:32.550Z,44.97
2023-02-12T19:42:59.509Z,43.85
2023-02-12T19:45:26.535Z,34.80
2023-02-12T19:47:53.418Z,35.90
2023-02-12T19:50:20.456Z,29.08
2023-02-12T19:52:47.361Z,24.37
2023-02-12T19:55:14.347Z,28.98
2023-02-12T19:57:41.468Z,26.12
2023-02-12T20:00:09.255Z,28.60
2023-02-12T20:02:36.422Z,35.80
2023-02-12T20:05:03.304Z,48.75
2023-02-12T20:07:31.409Z,65.45
2023-02-12T20:09:58.290Z,87.15
2023-02-12T20:12:25.207Z,93.93
2023-02-12T20:14:54.823Z,73.90
2023-02-12T20:17:21.782Z,110.12
2023-02-12T20:19:48.739Z,124.25
2023-02-12T20:22:15.681Z,124.00
2023-02-12T20:24:42.652Z,120.37
2023-02-12T20:27:11.237Z,140.82
2023-02-12T20:29:38.317Z,122.28
2023-02-12T20:32:05.427Z,99.50
2023-02-12T20:34:39.742Z,102.62
2023-02-12T20:37:17.403Z,88.40
2023-02-12T20:39:44.263Z,91.22
2023-02-12T20:42:12.158Z,76.47
2023-02-12T20:44:39.100Z,79.60
2023-02-12T20:47:05.961Z,74.65
2023-02-12T20:49:32.982Z,58.08
2023-02-12T20:51:59.880Z,56.08
2023-02-12T20:54:26.819Z,41.95
2023-02-12T20:56:53.760Z,42.72
2023-02-12T20:59:20.713Z,38.88
2023-02-12T21:01:48.207Z,39.17
2023-02-12T21:04:18.633Z,42.67
2023-02-12T21:06:46.102Z,42.13
2023-02-12T21:09:15.122Z,40.72
2023-02-12T21:11:45.764Z,46.47
2023-02-12T21:14:23.543Z,36.42
2023-02-12T21:16:52.422Z,39.00
2023-02-12T21:19:19.459Z,38.65
2023-02-12T21:21:46.729Z,31.75
2023-02-12T21:24:17.347Z,30.40
2023-02-12T21:26:44.756Z,39.00
2023-02-12T21:29:11.914Z,31.62
2023-02-12T21:31:43.884Z,38.80
2023-02-12T21:34:14.930Z,43.80
2023-02-12T21:36:45.344Z,34.45
2023-02-12T21:39:25.016Z,44.85
2023-02-12T21:41:54.963Z,60.90
2023-02-12T21:44:23.496Z,54.03
2023-02-12T21:46:50.876Z,62.08
2023-02-12T21:49:25.013Z,73.95
2023-02-12T21:51:54.527Z,65.00
2023-02-12T21:54:21.829Z,35.55
2023-02-12T21:56:49.895Z,31.08
2023-02-12T21:59:18.101Z,33.75
2023-02-12T22:01:48.651Z,31.20
2023-02-12T22:04:16.552Z,26.85
2023-02-12T22:06:46.373Z,31.00
2023-02-12T22:09:17.885Z,39.70
2023-02-12T22:11:45.304Z,38.60
2023-02-12T22:14:15.484Z,35.10
2023-02-12T22:16:42.890Z,38.05
2023-02-12T22:19:11.699Z,27.95
2023-02-12T22:21:41.400Z,25.45
2023-02-12T22:24:11.033Z,28.62
2023-02-12T22:26:38.050Z,29.25
2023-02-12T22:29:07.555Z,38.22
2023-02-12T22:31:37.537Z,54.83
2023-02-12T22:34:07.599Z,56.42
2023-02-12T22:36:36.283Z,53.30
2023-02-12T22:39:04.448Z,63.58
2023-02-12T22:41:31.410Z,70.18
2023-02-12T22:44:00.354Z,79.55
2023-02-12T22:46:29.122Z,72.10
2023-02-12T22:48:56.293Z,45.92
2023-02-12T22:51:26.466Z,60.78
2023-02-12T22:53:54.523Z,58.72
2023-02-12T22:56:21.867Z,65.43
2023-02-12T22:58:48.944Z,54.40
2023-02-12T23:01:18.493Z,54.97
2023-02-12T23:03:46.163Z,55.50
2023-02-12T23:06:19.690Z,59.47
2023-02-12T23:08:51.038Z,50.08
2023-02-12T23:11:18.552Z,38.63
2023-02-12T23:13:46.207Z,34.53
2023-02-12T23:16:13.368Z,43.80
2023-02-12T23:18:40.311Z,39.25
2023-02-12T23:21:07.354Z,35.33
2023-02-12T23:23:34.395Z,47.47
2023-02-12T23:26:01.491Z,42.70
2023-02-12T23:28:28.601Z,58.90
2023-02-12T23:30:55.712Z,51.45
2023-02-12T23:33:23.075Z,43.83
2023-02-12T23:35:50.306Z,37.25
2023-02-12T23:38:17.709Z,35.55
2023-02-12T23:40:44.773Z,34.50
2023-02-12T23:43:11.740Z,25.12
2023-02-12T23:45:38.798Z,31.83
2023-02-12T23:48:05.934Z,31.70
2023-02-12T23:50:32.986Z,31.85
2023-02-12T23:52:59.891Z,29.12
2023-02-12T23:55:26.811Z,30.67
2023-02-12T23:57:53.695Z,25.20
